Getafe, Spain
Current Conditions -  °F | °C
As of 10:00 AM on Monday 24 Nov 2014 (Local Time) from LEGT Reporting Station
Clear Clear  
Wind Chill: 55°   Ceiling: Unl
Heat Index: 55°   Visibility: 6mi
Dew Point: 50°   Wind: 2mph
Humidity: 82%   Direction: 20°NNE
Pressure: 30.06"   Gusts: NA
Location:  40.3°N, 3.73°W
Report Text: LEGT 240900Z 02002KT CAVOK 13/10 Q1018
Loading
Personal Weather Stations






























Interactive Weather Map New forecast layout! Learn more

10-Day Weather Forecast

Advertisements
Track Severe Weather on mobile